sensor_id;sensor_type;location;lat;lon;timestamp;P1;durP1;ratioP1;P2;durP2;ratioP2
68216;SDS011;55037;52.354;4.992;2023-03-16T00:02:08;4.40;;;2.55;;
68216;SDS011;55037;52.354;4.992;2023-03-16T00:04:37;4.20;;;2.50;;
68216;SDS011;55037;52.354;4.992;2023-03-16T00:07:05;3.33;;;2.00;;
68216;SDS011;55037;52.354;4.992;2023-03-16T00:09:35;3.60;;;2.58;;
68216;SDS011;55037;52.354;4.992;2023-03-16T00:12:09;5.38;;;2.88;;
68216;SDS011;55037;52.354;4.992;2023-03-16T00:14:42;6.22;;;2.65;;
68216;SDS011;55037;52.354;4.992;2023-03-16T00:17:12;6.20;;;2.80;;
68216;SDS011;55037;52.354;4.992;2023-03-16T00:22:14;4.70;;;2.78;;
68216;SDS011;55037;52.354;4.992;2023-03-16T00:24:42;4.47;;;2.72;;
68216;SDS011;55037;52.354;4.992;2023-03-16T00:27:12;6.82;;;3.22;;
68216;SDS011;55037;52.354;4.992;2023-03-16T00:29:44;9.52;;;3.42;;
68216;SDS011;55037;52.354;4.992;2023-03-16T00:32:17;2.97;;;2.13;;
68216;SDS011;55037;52.354;4.992;2023-03-16T00:34:47;5.38;;;2.88;;
68216;SDS011;55037;52.354;4.992;2023-03-16T00:37:15;4.03;;;2.53;;
68216;SDS011;55037;52.354;4.992;2023-03-16T00:39:44;7.95;;;3.60;;
68216;SDS011;55037;52.354;4.992;2023-03-16T00:42:13;4.03;;;3.25;;
68216;SDS011;55037;52.354;4.992;2023-03-16T00:44:41;4.07;;;2.50;;
68216;SDS011;55037;52.354;4.992;2023-03-16T00:47:09;8.32;;;3.45;;
68216;SDS011;55037;52.354;4.992;2023-03-16T00:49:41;4.18;;;2.53;;
68216;SDS011;55037;52.354;4.992;2023-03-16T00:52:10;6.88;;;2.67;;
68216;SDS011;55037;52.354;4.992;2023-03-16T00:54:42;8.55;;;2.78;;
68216;SDS011;55037;52.354;4.992;2023-03-16T00:57:11;4.50;;;2.77;;
68216;SDS011;55037;52.354;4.992;2023-03-16T00:59:42;6.07;;;3.55;;
68216;SDS011;55037;52.354;4.992;2023-03-16T01:02:09;5.18;;;3.45;;
68216;SDS011;55037;52.354;4.992;2023-03-16T01:04:38;5.10;;;2.95;;
68216;SDS011;55037;52.354;4.992;2023-03-16T01:07:07;4.63;;;3.22;;
68216;SDS011;55037;52.354;4.992;2023-03-16T01:09:37;4.20;;;2.97;;
68216;SDS011;55037;52.354;4.992;2023-03-16T01:12:09;3.92;;;2.40;;
68216;SDS011;55037;52.354;4.992;2023-03-16T01:14:43;6.93;;;3.60;;
68216;SDS011;55037;52.354;4.992;2023-03-16T01:17:11;6.47;;;3.40;;
68216;SDS011;55037;52.354;4.992;2023-03-16T01:19:41;6.65;;;2.80;;
68216;SDS011;55037;52.354;4.992;2023-03-16T01:22:09;6.50;;;3.20;;
68216;SDS011;55037;52.354;4.992;2023-03-16T01:24:37;6.57;;;3.50;;
68216;SDS011;55037;52.354;4.992;2023-03-16T01:27:06;4.95;;;3.05;;
68216;SDS011;55037;52.354;4.992;2023-03-16T01:29:34;9.00;;;4.00;;
68216;SDS011;55037;52.354;4.992;2023-03-16T01:32:03;5.32;;;3.20;;
68216;SDS011;55037;52.354;4.992;2023-03-16T01:34:31;8.27;;;3.90;;
68216;SDS011;55037;52.354;4.992;2023-03-16T01:36:59;4.78;;;3.60;;
68216;SDS011;55037;52.354;4.992;2023-03-16T01:39:38;3.45;;;2.25;;
68216;SDS011;55037;52.354;4.992;2023-03-16T01:42:06;4.53;;;2.78;;
68216;SDS011;55037;52.354;4.992;2023-03-16T01:44:48;5.78;;;3.65;;
68216;SDS011;55037;52.354;4.992;2023-03-16T01:47:24;7.27;;;3.13;;
68216;SDS011;55037;52.354;4.992;2023-03-16T01:49:51;4.93;;;2.67;;
68216;SDS011;55037;52.354;4.992;2023-03-16T01:52:26;4.03;;;2.80;;
68216;SDS011;55037;52.354;4.992;2023-03-16T01:54:59;4.32;;;2.70;;
68216;SDS011;55037;52.354;4.992;2023-03-16T01:57:37;8.10;;;3.28;;
68216;SDS011;55037;52.354;4.992;2023-03-16T02:00:09;4.37;;;2.13;;
68216;SDS011;55037;52.354;4.992;2023-03-16T02:02:55;4.53;;;2.58;;
68216;SDS011;55037;52.354;4.992;2023-03-16T02:05:40;8.60;;;4.10;;
68216;SDS011;55037;52.354;4.992;2023-03-16T02:08:14;7.35;;;3.92;;
68216;SDS011;55037;52.354;4.992;2023-03-16T02:10:43;5.53;;;3.35;;
68216;SDS011;55037;52.354;4.992;2023-03-16T02:13:12;4.53;;;3.13;;
68216;SDS011;55037;52.354;4.992;2023-03-16T02:15:39;3.40;;;2.55;;
68216;SDS011;55037;52.354;4.992;2023-03-16T02:18:08;9.45;;;4.28;;
68216;SDS011;55037;52.354;4.992;2023-03-16T02:23:26;6.65;;;2.92;;
68216;SDS011;55037;52.354;4.992;2023-03-16T02:31:23;4.40;;;2.60;;
68216;SDS011;55037;52.354;4.992;2023-03-16T02:33:51;8.35;;;3.38;;
68216;SDS011;55037;52.354;4.992;2023-03-16T02:36:19;5.90;;;3.38;;
68216;SDS011;55037;52.354;4.992;2023-03-16T02:38:47;5.13;;;3.03;;
68216;SDS011;55037;52.354;4.992;2023-03-16T02:41:17;8.63;;;3.67;;
68216;SDS011;55037;52.354;4.992;2023-03-16T02:43:52;4.75;;;2.33;;
68216;SDS011;55037;52.354;4.992;2023-03-16T02:46:30;6.90;;;3.33;;
68216;SDS011;55037;52.354;4.992;2023-03-16T02:51:31;3.97;;;2.93;;
68216;SDS011;55037;52.354;4.992;2023-03-16T02:53:59;5.30;;;3.20;;
68216;SDS011;55037;52.354;4.992;2023-03-16T02:56:29;4.65;;;2.60;;
68216;SDS011;55037;52.354;4.992;2023-03-16T02:58:56;4.20;;;2.40;;
68216;SDS011;55037;52.354;4.992;2023-03-16T03:01:24;4.50;;;2.55;;
68216;SDS011;55037;52.354;4.992;2023-03-16T03:03:53;6.07;;;3.37;;
68216;SDS011;55037;52.354;4.992;2023-03-16T03:06:20;4.72;;;2.95;;
68216;SDS011;55037;52.354;4.992;2023-03-16T03:08:47;4.65;;;3.00;;
68216;SDS011;55037;52.354;4.992;2023-03-16T03:11:15;3.58;;;2.47;;
68216;SDS011;55037;52.354;4.992;2023-03-16T03:13:45;5.97;;;3.75;;
68216;SDS011;55037;52.354;4.992;2023-03-16T03:16:17;5.77;;;2.80;;
68216;SDS011;55037;52.354;4.992;2023-03-16T03:18:44;7.45;;;3.13;;
68216;SDS011;55037;52.354;4.992;2023-03-16T03:21:12;7.45;;;3.72;;
68216;SDS011;55037;52.354;4.992;2023-03-16T03:23:39;5.82;;;3.13;;
68216;SDS011;55037;52.354;4.992;2023-03-16T03:26:06;4.97;;;3.50;;
68216;SDS011;55037;52.354;4.992;2023-03-16T03:28:34;7.10;;;3.90;;
68216;SDS011;55037;52.354;4.992;2023-03-16T03:31:01;5.88;;;3.25;;
68216;SDS011;55037;52.354;4.992;2023-03-16T03:33:28;7.78;;;3.85;;
68216;SDS011;55037;52.354;4.992;2023-03-16T03:35:56;9.93;;;4.80;;
68216;SDS011;55037;52.354;4.992;2023-03-16T03:38:27;6.03;;;3.15;;
68216;SDS011;55037;52.354;4.992;2023-03-16T03:40:54;7.50;;;4.33;;
68216;SDS011;55037;52.354;4.992;2023-03-16T03:43:31;5.28;;;2.97;;
68216;SDS011;55037;52.354;4.992;2023-03-16T03:45:59;6.43;;;3.38;;
68216;SDS011;55037;52.354;4.992;2023-03-16T03:48:30;3.22;;;2.08;;
68216;SDS011;55037;52.354;4.992;2023-03-16T03:50:57;4.47;;;3.22;;
68216;SDS011;55037;52.354;4.992;2023-03-16T03:53:24;6.23;;;3.17;;
68216;SDS011;55037;52.354;4.992;2023-03-16T03:56:08;6.10;;;2.97;;
68216;SDS011;55037;52.354;4.992;2023-03-16T03:58:36;4.40;;;3.00;;
68216;SDS011;55037;52.354;4.992;2023-03-16T04:01:04;4.88;;;3.08;;
68216;SDS011;55037;52.354;4.992;2023-03-16T04:03:32;5.75;;;3.75;;
68216;SDS011;55037;52.354;4.992;2023-03-16T04:05:59;11.63;;;3.63;;
68216;SDS011;55037;52.354;4.992;2023-03-16T04:08:28;7.13;;;3.88;;
68216;SDS011;55037;52.354;4.992;2023-03-16T04:10:55;7.43;;;4.28;;
68216;SDS011;55037;52.354;4.992;2023-03-16T04:13:22;9.00;;;4.05;;
68216;SDS011;55037;52.354;4.992;2023-03-16T04:15:54;6.60;;;3.45;;
68216;SDS011;55037;52.354;4.992;2023-03-16T04:18:26;7.80;;;3.60;;
68216;SDS011;55037;52.354;4.992;2023-03-16T04:20:54;4.90;;;2.85;;
68216;SDS011;55037;52.354;4.992;2023-03-16T04:23:23;5.18;;;2.92;;
68216;SDS011;55037;52.354;4.992;2023-03-16T04:25:51;6.05;;;2.78;;
68216;SDS011;55037;52.354;4.992;2023-03-16T04:28:21;4.88;;;3.40;;
68216;SDS011;55037;52.354;4.992;2023-03-16T04:30:51;6.37;;;3.23;;
68216;SDS011;55037;52.354;4.992;2023-03-16T04:33:28;7.93;;;3.47;;
68216;SDS011;55037;52.354;4.992;2023-03-16T04:35:58;4.70;;;2.78;;
68216;SDS011;55037;52.354;4.992;2023-03-16T04:38:26;5.82;;;2.47;;
68216;SDS011;55037;52.354;4.992;2023-03-16T04:40:58;3.15;;;2.47;;
68216;SDS011;55037;52.354;4.992;2023-03-16T04:43:33;4.93;;;3.33;;
68216;SDS011;55037;52.354;4.992;2023-03-16T04:46:10;4.72;;;2.88;;
68216;SDS011;55037;52.354;4.992;2023-03-16T04:48:38;5.28;;;2.70;;
68216;SDS011;55037;52.354;4.992;2023-03-16T04:51:05;6.10;;;3.47;;
68216;SDS011;55037;52.354;4.992;2023-03-16T04:53:36;5.53;;;3.47;;
68216;SDS011;55037;52.354;4.992;2023-03-16T04:56:12;4.00;;;2.53;;
68216;SDS011;55037;52.354;4.992;2023-03-16T04:58:49;5.95;;;2.88;;
68216;SDS011;55037;52.354;4.992;2023-03-16T05:01:18;3.88;;;2.90;;
68216;SDS011;55037;52.354;4.992;2023-03-16T05:03:46;8.88;;;2.92;;
68216;SDS011;55037;52.354;4.992;2023-03-16T05:06:15;4.18;;;2.45;;
68216;SDS011;55037;52.354;4.992;2023-03-16T05:08:43;6.57;;;3.43;;
68216;SDS011;55037;52.354;4.992;2023-03-16T05:11:10;6.03;;;2.95;;
68216;SDS011;55037;52.354;4.992;2023-03-16T05:13:46;6.88;;;3.45;;
68216;SDS011;55037;52.354;4.992;2023-03-16T05:16:14;3.65;;;2.55;;
68216;SDS011;55037;52.354;4.992;2023-03-16T05:18:41;6.78;;;3.70;;
68216;SDS011;55037;52.354;4.992;2023-03-16T05:21:09;4.83;;;2.60;;
68216;SDS011;55037;52.354;4.992;2023-03-16T05:23:47;5.70;;;3.05;;
68216;SDS011;55037;52.354;4.992;2023-03-16T05:26:15;7.78;;;3.50;;
68216;SDS011;55037;52.354;4.992;2023-03-16T05:28:42;5.30;;;2.50;;
68216;SDS011;55037;52.354;4.992;2023-03-16T05:31:13;5.88;;;3.25;;
68216;SDS011;55037;52.354;4.992;2023-03-16T05:33:47;6.27;;;3.20;;
68216;SDS011;55037;52.354;4.992;2023-03-16T05:36:18;4.43;;;2.70;;
68216;SDS011;55037;52.354;4.992;2023-03-16T05:38:49;8.45;;;3.42;;
68216;SDS011;55037;52.354;4.992;2023-03-16T05:41:29;5.80;;;2.88;;
68216;SDS011;55037;52.354;4.992;2023-03-16T05:44:01;5.65;;;3.03;;
68216;SDS011;55037;52.354;4.992;2023-03-16T05:46:56;3.80;;;2.53;;
68216;SDS011;55037;52.354;4.992;2023-03-16T05:49:23;4.10;;;2.15;;
68216;SDS011;55037;52.354;4.992;2023-03-16T05:51:51;4.45;;;2.72;;
68216;SDS011;55037;52.354;4.992;2023-03-16T05:54:18;6.05;;;2.78;;
68216;SDS011;55037;52.354;4.992;2023-03-16T05:56:47;4.85;;;2.70;;
68216;SDS011;55037;52.354;4.992;2023-03-16T05:59:15;4.23;;;2.70;;
68216;SDS011;55037;52.354;4.992;2023-03-16T06:01:48;4.05;;;2.75;;
68216;SDS011;55037;52.354;4.992;2023-03-16T06:04:16;5.00;;;2.95;;
68216;SDS011;55037;52.354;4.992;2023-03-16T06:06:43;5.53;;;2.63;;
68216;SDS011;55037;52.354;4.992;2023-03-16T06:09:17;5.97;;;2.83;;
68216;SDS011;55037;52.354;4.992;2023-03-16T06:11:45;7.80;;;2.63;;
68216;SDS011;55037;52.354;4.992;2023-03-16T06:14:14;5.88;;;3.38;;
68216;SDS011;55037;52.354;4.992;2023-03-16T06:16:42;7.47;;;3.00;;
68216;SDS011;55037;52.354;4.992;2023-03-16T06:19:10;4.00;;;2.10;;
68216;SDS011;55037;52.354;4.992;2023-03-16T06:21:37;3.40;;;2.28;;
68216;SDS011;55037;52.354;4.992;2023-03-16T06:24:08;6.50;;;3.07;;
68216;SDS011;55037;52.354;4.992;2023-03-16T06:26:35;3.45;;;1.95;;
68216;SDS011;55037;52.354;4.992;2023-03-16T06:29:05;4.57;;;2.35;;
68216;SDS011;55037;52.354;4.992;2023-03-16T06:31:35;7.75;;;2.90;;
68216;SDS011;55037;52.354;4.992;2023-03-16T06:34:03;5.00;;;2.65;;
68216;SDS011;55037;52.354;4.992;2023-03-16T06:36:30;5.90;;;2.43;;
68216;SDS011;55037;52.354;4.992;2023-03-16T06:39:00;5.30;;;2.05;;
68216;SDS011;55037;52.354;4.992;2023-03-16T06:41:35;6.05;;;2.45;;
68216;SDS011;55037;52.354;4.992;2023-03-16T06:44:03;4.07;;;2.47;;
68216;SDS011;55037;52.354;4.992;2023-03-16T06:46:34;5.60;;;2.53;;
68216;SDS011;55037;52.354;4.992;2023-03-16T06:49:03;6.03;;;2.90;;
68216;SDS011;55037;52.354;4.992;2023-03-16T06:51:31;4.88;;;2.85;;
68216;SDS011;55037;52.354;4.992;2023-03-16T06:53:59;7.47;;;2.85;;
68216;SDS011;55037;52.354;4.992;2023-03-16T06:56:27;4.72;;;2.42;;
68216;SDS011;55037;52.354;4.992;2023-03-16T06:58:55;4.38;;;2.25;;
68216;SDS011;55037;52.354;4.992;2023-03-16T07:01:22;5.63;;;1.93;;
68216;SDS011;55037;52.354;4.992;2023-03-16T07:03:50;5.82;;;2.38;;
68216;SDS011;55037;52.354;4.992;2023-03-16T07:06:25;4.60;;;2.60;;
68216;SDS011;55037;52.354;4.992;2023-03-16T07:08:53;5.72;;;2.88;;
68216;SDS011;55037;52.354;4.992;2023-03-16T07:11:21;4.88;;;2.35;;
68216;SDS011;55037;52.354;4.992;2023-03-16T07:13:49;4.30;;;2.30;;
68216;SDS011;55037;52.354;4.992;2023-03-16T07:16:18;3.55;;;2.00;;
68216;SDS011;55037;52.354;4.992;2023-03-16T07:18:46;2.60;;;1.80;;
68216;SDS011;55037;52.354;4.992;2023-03-16T07:21:17;5.18;;;2.35;;
68216;SDS011;55037;52.354;4.992;2023-03-16T07:23:46;2.97;;;1.65;;
68216;SDS011;55037;52.354;4.992;2023-03-16T07:26:18;5.37;;;2.00;;
68216;SDS011;55037;52.354;4.992;2023-03-16T07:28:51;3.42;;;1.80;;
68216;SDS011;55037;52.354;4.992;2023-03-16T07:31:19;4.03;;;1.98;;
68216;SDS011;55037;52.354;4.992;2023-03-16T07:33:47;2.88;;;1.67;;
68216;SDS011;55037;52.354;4.992;2023-03-16T07:36:23;4.93;;;2.20;;
68216;SDS011;55037;52.354;4.992;2023-03-16T07:38:55;38.90;;;2.50;;
68216;SDS011;55037;52.354;4.992;2023-03-16T07:41:22;3.55;;;1.90;;
68216;SDS011;55037;52.354;4.992;2023-03-16T07:43:51;4.22;;;1.90;;
68216;SDS011;55037;52.354;4.992;2023-03-16T07:46:23;4.45;;;2.05;;
68216;SDS011;55037;52.354;4.992;2023-03-16T07:48:51;5.47;;;2.50;;
68216;SDS011;55037;52.354;4.992;2023-03-16T07:51:18;4.20;;;1.80;;
68216;SDS011;55037;52.354;4.992;2023-03-16T07:53:47;3.47;;;1.60;;
68216;SDS011;55037;52.354;4.992;2023-03-16T07:56:19;3.60;;;1.90;;
68216;SDS011;55037;52.354;4.992;2023-03-16T07:58:50;3.97;;;1.85;;
68216;SDS011;55037;52.354;4.992;2023-03-16T08:01:18;4.25;;;1.83;;
68216;SDS011;55037;52.354;4.992;2023-03-16T08:03:47;3.63;;;1.70;;
68216;SDS011;55037;52.354;4.992;2023-03-16T08:06:14;6.80;;;1.75;;
68216;SDS011;55037;52.354;4.992;2023-03-16T08:08:41;2.88;;;1.70;;
68216;SDS011;55037;52.354;4.992;2023-03-16T08:11:15;5.45;;;2.00;;
68216;SDS011;55037;52.354;4.992;2023-03-16T08:13:54;3.97;;;1.83;;
68216;SDS011;55037;52.354;4.992;2023-03-16T08:16:25;2.97;;;1.67;;
68216;SDS011;55037;52.354;4.992;2023-03-16T08:18:56;3.17;;;1.70;;
68216;SDS011;55037;52.354;4.992;2023-03-16T08:21:24;3.90;;;2.10;;
68216;SDS011;55037;52.354;4.992;2023-03-16T08:23:52;3.55;;;1.95;;
68216;SDS011;55037;52.354;4.992;2023-03-16T08:26:21;4.88;;;2.30;;
68216;SDS011;55037;52.354;4.992;2023-03-16T08:28:53;6.03;;;2.20;;
68216;SDS011;55037;52.354;4.992;2023-03-16T08:31:21;3.25;;;1.83;;
68216;SDS011;55037;52.354;4.992;2023-03-16T08:33:58;4.63;;;2.65;;
68216;SDS011;55037;52.354;4.992;2023-03-16T08:36:27;4.53;;;2.28;;
68216;SDS011;55037;52.354;4.992;2023-03-16T08:38:57;6.45;;;2.40;;
68216;SDS011;55037;52.354;4.992;2023-03-16T08:41:38;4.57;;;2.73;;
68216;SDS011;55037;52.354;4.992;2023-03-16T08:44:14;4.88;;;2.60;;
68216;SDS011;55037;52.354;4.992;2023-03-16T08:46:41;6.70;;;2.75;;
68216;SDS011;55037;52.354;4.992;2023-03-16T08:49:09;4.78;;;2.50;;
68216;SDS011;55037;52.354;4.992;2023-03-16T08:51:36;3.90;;;2.15;;
68216;SDS011;55037;52.354;4.992;2023-03-16T08:54:04;6.00;;;2.90;;
68216;SDS011;55037;52.354;4.992;2023-03-16T08:56:31;4.43;;;2.53;;
68216;SDS011;55037;52.354;4.992;2023-03-16T08:58:58;5.00;;;2.42;;
68216;SDS011;55037;52.354;4.992;2023-03-16T09:01:25;4.03;;;2.20;;
68216;SDS011;55037;52.354;4.992;2023-03-16T09:03:53;4.35;;;2.53;;
68216;SDS011;55037;52.354;4.992;2023-03-16T09:06:20;3.37;;;2.20;;
68216;SDS011;55037;52.354;4.992;2023-03-16T09:08:48;3.97;;;1.95;;
68216;SDS011;55037;52.354;4.992;2023-03-16T09:11:16;5.55;;;2.53;;
68216;SDS011;55037;52.354;4.992;2023-03-16T09:13:44;6.00;;;2.20;;
68216;SDS011;55037;52.354;4.992;2023-03-16T09:16:13;4.05;;;2.10;;
68216;SDS011;55037;52.354;4.992;2023-03-16T09:18:41;4.27;;;2.30;;
68216;SDS011;55037;52.354;4.992;2023-03-16T09:21:09;3.85;;;2.22;;
68216;SDS011;55037;52.354;4.992;2023-03-16T09:23:39;4.18;;;2.10;;
68216;SDS011;55037;52.354;4.992;2023-03-16T09:26:08;4.53;;;2.35;;
68216;SDS011;55037;52.354;4.992;2023-03-16T09:28:36;5.07;;;2.10;;
68216;SDS011;55037;52.354;4.992;2023-03-16T09:31:08;5.03;;;2.20;;
68216;SDS011;55037;52.354;4.992;2023-03-16T09:33:41;5.90;;;2.55;;
68216;SDS011;55037;52.354;4.992;2023-03-16T09:36:08;3.28;;;1.95;;
68216;SDS011;55037;52.354;4.992;2023-03-16T09:38:37;5.20;;;2.45;;
68216;SDS011;55037;52.354;4.992;2023-03-16T09:41:09;3.88;;;2.17;;
68216;SDS011;55037;52.354;4.992;2023-03-16T09:43:58;4.37;;;2.03;;
68216;SDS011;55037;52.354;4.992;2023-03-16T09:46:39;5.45;;;2.35;;
68216;SDS011;55037;52.354;4.992;2023-03-16T09:49:09;3.90;;;2.22;;
68216;SDS011;55037;52.354;4.992;2023-03-16T09:51:53;3.35;;;2.28;;
68216;SDS011;55037;52.354;4.992;2023-03-16T09:54:43;5.50;;;2.42;;
68216;SDS011;55037;52.354;4.992;2023-03-16T09:57:24;5.83;;;2.67;;
68216;SDS011;55037;52.354;4.992;2023-03-16T09:59:57;5.15;;;2.40;;
68216;SDS011;55037;52.354;4.992;2023-03-16T10:05:24;12.85;;;3.35;;
68216;SDS011;55037;52.354;4.992;2023-03-16T10:08:00;6.07;;;2.63;;
68216;SDS011;55037;52.354;4.992;2023-03-16T10:14:12;5.40;;;2.55;;
68216;SDS011;55037;52.354;4.992;2023-03-16T10:19:38;5.10;;;2.20;;
68216;SDS011;55037;52.354;4.992;2023-03-16T10:22:22;4.43;;;2.33;;
68216;SDS011;55037;52.354;4.992;2023-03-16T10:25:15;3.43;;;1.73;;
68216;SDS011;55037;52.354;4.992;2023-03-16T10:27:57;5.30;;;2.67;;
68216;SDS011;55037;52.354;4.992;2023-03-16T10:30:34;4.88;;;2.45;;
68216;SDS011;55037;52.354;4.992;2023-03-16T10:33:04;7.18;;;2.60;;
68216;SDS011;55037;52.354;4.992;2023-03-16T10:43:44;4.75;;;2.53;;
68216;SDS011;55037;52.354;4.992;2023-03-16T10:46:44;4.20;;;2.22;;
68216;SDS011;55037;52.354;4.992;2023-03-16T10:49:18;3.97;;;2.10;;
68216;SDS011;55037;52.354;4.992;2023-03-16T10:52:05;3.33;;;2.00;;
68216;SDS011;55037;52.354;4.992;2023-03-16T10:54:46;4.22;;;2.25;;
68216;SDS011;55037;52.354;4.992;2023-03-16T10:59:52;2.90;;;2.03;;
68216;SDS011;55037;52.354;4.992;2023-03-16T11:02:23;4.30;;;2.35;;
68216;SDS011;55037;52.354;4.992;2023-03-16T11:04:57;4.30;;;2.43;;
68216;SDS011;55037;52.354;4.992;2023-03-16T11:07:24;3.58;;;1.90;;
68216;SDS011;55037;52.354;4.992;2023-03-16T11:09:53;3.42;;;2.00;;
68216;SDS011;55037;52.354;4.992;2023-03-16T11:12:25;4.65;;;2.13;;
68216;SDS011;55037;52.354;4.992;2023-03-16T11:17:54;3.67;;;2.00;;
68216;SDS011;55037;52.354;4.992;2023-03-16T11:20:24;4.65;;;2.30;;
68216;SDS011;55037;52.354;4.992;2023-03-16T11:22:54;3.55;;;2.05;;
68216;SDS011;55037;52.354;4.992;2023-03-16T11:25:28;2.80;;;1.80;;
68216;SDS011;55037;52.354;4.992;2023-03-16T11:30:39;5.70;;;2.33;;
68216;SDS011;55037;52.354;4.992;2023-03-16T11:33:11;5.80;;;2.30;;
68216;SDS011;55037;52.354;4.992;2023-03-16T11:41:27;3.75;;;1.92;;
68216;SDS011;55037;52.354;4.992;2023-03-16T11:44:21;3.23;;;1.63;;
68216;SDS011;55037;52.354;4.992;2023-03-16T11:49:33;3.17;;;1.60;;
68216;SDS011;55037;52.354;4.992;2023-03-16T11:55:15;4.60;;;2.03;;
68216;SDS011;55037;52.354;4.992;2023-03-16T11:58:11;3.60;;;1.67;;
68216;SDS011;55037;52.354;4.992;2023-03-16T12:01:02;4.35;;;1.88;;
68216;SDS011;55037;52.354;4.992;2023-03-16T12:06:21;3.50;;;1.50;;
68216;SDS011;55037;52.354;4.992;2023-03-16T12:11:55;3.63;;;1.93;;
68216;SDS011;55037;52.354;4.992;2023-03-16T12:14:35;3.10;;;1.80;;
68216;SDS011;55037;52.354;4.992;2023-03-16T12:17:11;4.32;;;1.90;;
68216;SDS011;55037;52.354;4.992;2023-03-16T12:19:50;4.05;;;2.13;;
68216;SDS011;55037;52.354;4.992;2023-03-16T12:24:55;2.67;;;1.57;;
68216;SDS011;55037;52.354;4.992;2023-03-16T12:27:29;7.15;;;2.05;;
68216;SDS011;55037;52.354;4.992;2023-03-16T12:33:28;5.10;;;2.05;;
68216;SDS011;55037;52.354;4.992;2023-03-16T12:39:03;3.93;;;1.97;;
68216;SDS011;55037;52.354;4.992;2023-03-16T12:44:44;3.95;;;2.33;;
68216;SDS011;55037;52.354;4.992;2023-03-16T12:47:32;4.30;;;2.00;;
68216;SDS011;55037;52.354;4.992;2023-03-16T12:50:12;3.35;;;2.15;;
68216;SDS011;55037;52.354;4.992;2023-03-16T12:52:42;4.70;;;2.20;;
68216;SDS011;55037;52.354;4.992;2023-03-16T12:55:13;4.20;;;2.22;;
68216;SDS011;55037;52.354;4.992;2023-03-16T12:57:57;5.55;;;2.05;;
68216;SDS011;55037;52.354;4.992;2023-03-16T13:00:34;3.53;;;1.77;;
68216;SDS011;55037;52.354;4.992;2023-03-16T13:03:04;3.67;;;2.00;;
68216;SDS011;55037;52.354;4.992;2023-03-16T13:05:42;4.63;;;2.43;;
68216;SDS011;55037;52.354;4.992;2023-03-16T13:08:21;3.78;;;2.00;;
68216;SDS011;55037;52.354;4.992;2023-03-16T13:13:50;4.78;;;2.10;;
68216;SDS011;55037;52.354;4.992;2023-03-16T13:16:28;3.53;;;2.13;;
68216;SDS011;55037;52.354;4.992;2023-03-16T13:19:45;4.37;;;1.80;;
68216;SDS011;55037;52.354;4.992;2023-03-16T13:22:04;5.30;;;2.00;;
68216;SDS011;55037;52.354;4.992;2023-03-16T13:27:45;4.47;;;1.90;;
68216;SDS011;55037;52.354;4.992;2023-03-16T13:30:19;4.90;;;1.95;;
68216;SDS011;55037;52.354;4.992;2023-03-16T13:32:54;2.80;;;1.60;;
68216;SDS011;55037;52.354;4.992;2023-03-16T13:35:26;5.60;;;1.80;;
68216;SDS011;55037;52.354;4.992;2023-03-16T13:38:01;5.78;;;2.05;;
68216;SDS011;55037;52.354;4.992;2023-03-16T13:40:32;4.85;;;2.10;;
68216;SDS011;55037;52.354;4.992;2023-03-16T13:43:01;4.70;;;2.00;;
68216;SDS011;55037;52.354;4.992;2023-03-16T13:45:32;5.77;;;2.10;;
68216;SDS011;55037;52.354;4.992;2023-03-16T13:48:02;3.10;;;1.77;;
68216;SDS011;55037;52.354;4.992;2023-03-16T13:50:34;3.53;;;1.92;;
68216;SDS011;55037;52.354;4.992;2023-03-16T13:53:02;3.90;;;1.70;;
68216;SDS011;55037;52.354;4.992;2023-03-16T13:55:37;3.20;;;1.90;;
68216;SDS011;55037;52.354;4.992;2023-03-16T13:58:12;3.93;;;1.70;;
68216;SDS011;55037;52.354;4.992;2023-03-16T14:00:47;4.50;;;1.90;;
68216;SDS011;55037;52.354;4.992;2023-03-16T14:03:15;4.82;;;2.28;;
68216;SDS011;55037;52.354;4.992;2023-03-16T14:05:44;4.38;;;2.03;;
68216;SDS011;55037;52.354;4.992;2023-03-16T14:08:14;4.63;;;1.90;;
68216;SDS011;55037;52.354;4.992;2023-03-16T14:10:43;4.83;;;2.07;;
68216;SDS011;55037;52.354;4.992;2023-03-16T14:16:02;3.90;;;2.13;;
68216;SDS011;55037;52.354;4.992;2023-03-16T14:18:39;2.88;;;1.65;;
68216;SDS011;55037;52.354;4.992;2023-03-16T14:21:11;5.63;;;2.15;;
68216;SDS011;55037;52.354;4.992;2023-03-16T14:23:46;4.20;;;1.47;;
68216;SDS011;55037;52.354;4.992;2023-03-16T14:26:18;4.28;;;1.80;;
68216;SDS011;55037;52.354;4.992;2023-03-16T14:29:05;6.38;;;2.00;;
68216;SDS011;55037;52.354;4.992;2023-03-16T14:31:33;4.30;;;2.17;;
68216;SDS011;55037;52.354;4.992;2023-03-16T14:34:19;4.45;;;2.20;;
68216;SDS011;55037;52.354;4.992;2023-03-16T14:36:52;3.97;;;1.80;;
68216;SDS011;55037;52.354;4.992;2023-03-16T14:39:30;4.95;;;1.77;;
68216;SDS011;55037;52.354;4.992;2023-03-16T14:42:00;3.90;;;2.15;;
68216;SDS011;55037;52.354;4.992;2023-03-16T14:44:30;4.13;;;1.88;;
68216;SDS011;55037;52.354;4.992;2023-03-16T14:47:00;3.33;;;2.13;;
68216;SDS011;55037;52.354;4.992;2023-03-16T14:49:30;4.83;;;1.63;;
68216;SDS011;55037;52.354;4.992;2023-03-16T14:52:04;4.00;;;1.83;;
68216;SDS011;55037;52.354;4.992;2023-03-16T14:54:53;4.45;;;2.08;;
68216;SDS011;55037;52.354;4.992;2023-03-16T14:57:21;3.78;;;1.80;;
68216;SDS011;55037;52.354;4.992;2023-03-16T14:59:50;3.65;;;1.65;;
68216;SDS011;55037;52.354;4.992;2023-03-16T15:04:49;6.15;;;2.17;;
68216;SDS011;55037;52.354;4.992;2023-03-16T15:07:25;3.10;;;1.88;;
68216;SDS011;55037;52.354;4.992;2023-03-16T15:09:56;3.03;;;1.52;;
68216;SDS011;55037;52.354;4.992;2023-03-16T15:12:31;4.28;;;2.03;;
68216;SDS011;55037;52.354;4.992;2023-03-16T15:15:00;3.60;;;2.00;;
68216;SDS011;55037;52.354;4.992;2023-03-16T15:17:44;4.63;;;1.67;;
68216;SDS011;55037;52.354;4.992;2023-03-16T15:20:12;3.33;;;2.00;;
68216;SDS011;55037;52.354;4.992;2023-03-16T15:22:42;4.70;;;2.00;;
68216;SDS011;55037;52.354;4.992;2023-03-16T15:28:09;2.60;;;1.60;;
68216;SDS011;55037;52.354;4.992;2023-03-16T15:30:45;5.90;;;2.03;;
68216;SDS011;55037;52.354;4.992;2023-03-16T15:33:14;5.75;;;2.25;;
68216;SDS011;55037;52.354;4.992;2023-03-16T15:35:43;2.47;;;1.50;;
68216;SDS011;55037;52.354;4.992;2023-03-16T15:38:15;5.70;;;2.28;;
68216;SDS011;55037;52.354;4.992;2023-03-16T15:41:09;3.57;;;1.93;;
68216;SDS011;55037;52.354;4.992;2023-03-16T15:43:37;4.95;;;1.95;;
68216;SDS011;55037;52.354;4.992;2023-03-16T15:46:05;3.80;;;1.92;;
68216;SDS011;55037;52.354;4.992;2023-03-16T15:48:32;3.97;;;1.95;;
68216;SDS011;55037;52.354;4.992;2023-03-16T15:51:01;3.70;;;1.90;;
68216;SDS011;55037;52.354;4.992;2023-03-16T15:53:38;2.73;;;1.60;;
68216;SDS011;55037;52.354;4.992;2023-03-16T15:56:14;6.50;;;1.92;;
68216;SDS011;55037;52.354;4.992;2023-03-16T15:58:44;3.95;;;1.88;;
68216;SDS011;55037;52.354;4.992;2023-03-16T16:01:22;3.47;;;1.40;;
68216;SDS011;55037;52.354;4.992;2023-03-16T16:03:52;3.05;;;1.85;;
68216;SDS011;55037;52.354;4.992;2023-03-16T16:06:21;4.13;;;2.03;;
68216;SDS011;55037;52.354;4.992;2023-03-16T16:08:49;2.65;;;1.50;;
68216;SDS011;55037;52.354;4.992;2023-03-16T16:11:20;4.25;;;1.70;;
68216;SDS011;55037;52.354;4.992;2023-03-16T16:13:52;2.40;;;1.40;;
68216;SDS011;55037;52.354;4.992;2023-03-16T16:16:21;5.45;;;1.67;;
68216;SDS011;55037;52.354;4.992;2023-03-16T16:18:51;3.27;;;1.53;;
68216;SDS011;55037;52.354;4.992;2023-03-16T16:21:22;4.03;;;1.48;;
68216;SDS011;55037;52.354;4.992;2023-03-16T16:23:53;3.45;;;1.83;;
68216;SDS011;55037;52.354;4.992;2023-03-16T16:26:26;3.05;;;1.35;;
68216;SDS011;55037;52.354;4.992;2023-03-16T16:31:44;3.83;;;1.53;;
68216;SDS011;55037;52.354;4.992;2023-03-16T16:34:15;3.97;;;1.40;;
68216;SDS011;55037;52.354;4.992;2023-03-16T16:36:44;5.13;;;1.38;;
68216;SDS011;55037;52.354;4.992;2023-03-16T16:39:11;2.90;;;1.50;;
68216;SDS011;55037;52.354;4.992;2023-03-16T16:41:39;3.40;;;1.70;;